createdAt,value
2019-02-28T00:00:16.976Z,65.90
2019-02-28T00:03:00.159Z,65.90
2019-02-28T00:05:42.497Z,65.60
2019-02-28T00:08:25.122Z,65.60
2019-02-28T00:11:05.039Z,65.60
2019-02-28T00:13:46.595Z,65.40
2019-02-28T00:16:28.632Z,65.40
2019-02-28T00:19:05.048Z,65.20
2019-02-28T00:21:47.898Z,65.20
2019-02-28T00:24:23.960Z,65.10
2019-02-28T00:27:06.542Z,65.20
2019-02-28T00:29:48.285Z,65.20
2019-02-28T00:32:31.453Z,65.00
2019-02-28T00:35:15.543Z,65.00
2019-02-28T00:37:58.027Z,64.90
2019-02-28T00:40:47.501Z,64.50
2019-02-28T00:43:25.186Z,64.20
2019-02-28T00:46:10.162Z,64.20
2019-02-28T00:48:53.954Z,63.90
2019-02-28T00:51:30.769Z,63.90
2019-02-28T00:54:20.254Z,63.90
2019-02-28T00:56:56.635Z,63.90
2019-02-28T00:59:38.723Z,63.90
2019-02-28T01:02:21.230Z,63.60
2019-02-28T01:05:05.049Z,63.40
2019-02-28T01:07:49.072Z,63.10
2019-02-28T01:10:24.465Z,62.80
2019-02-28T01:13:07.111Z,62.70
2019-02-28T01:15:50.247Z,62.60
2019-02-28T01:18:26.664Z,62.40
2019-02-28T01:21:15.700Z,62.20
2019-02-28T01:24:00.661Z,61.90
2019-02-28T01:26:43.290Z,61.50
2019-02-28T01:29:25.379Z,61.40
2019-02-28T01:32:08.161Z,61.10
2019-02-28T01:34:50.675Z,61.10
2019-02-28T01:37:32.811Z,61.30
2019-02-28T01:40:17.088Z,61.40
2019-02-28T01:42:59.750Z,61.40
2019-02-28T01:45:44.222Z,61.30
2019-02-28T01:48:26.175Z,61.20
2019-02-28T01:51:02.705Z,60.80
2019-02-28T01:53:44.331Z,60.80
2019-02-28T01:56:20.146Z,60.50
2019-02-28T01:59:02.557Z,60.50
2019-02-28T02:01:51.821Z,60.50
2019-02-28T02:04:43.194Z,60.20
2019-02-28T02:07:19.305Z,60.10
2019-02-28T02:09:55.189Z,59.80
2019-02-28T02:12:44.424Z,59.90
2019-02-28T02:15:26.875Z,59.80
2019-02-28T02:18:10.098Z,60.00
2019-02-28T02:20:53.283Z,60.20
2019-02-28T02:23:29.181Z,60.30
2019-02-28T02:26:11.905Z,61.10
2019-02-28T02:28:48.297Z,60.50
2019-02-28T02:31:37.658Z,60.90
2019-02-28T02:34:13.706Z,60.90
2019-02-28T02:36:54.168Z,61.10
2019-02-28T02:39:28.534Z,61.10
2019-02-28T02:42:10.084Z,61.20
2019-02-28T02:44:48.452Z,60.90
2019-02-28T02:47:31.307Z,60.90
2019-02-28T02:50:04.320Z,60.90
2019-02-28T02:52:52.879Z,60.80
2019-02-28T02:55:29.329Z,60.50
2019-02-28T02:58:11.961Z,60.50
2019-02-28T03:00:51.119Z,60.40
2019-02-28T03:03:32.850Z,60.50
2019-02-28T03:06:15.014Z,60.20
2019-02-28T03:09:04.202Z,60.40
2019-02-28T03:11:39.921Z,60.40
2019-02-28T03:14:22.963Z,60.20
2019-02-28T03:16:58.712Z,60.40
2019-02-28T03:19:41.265Z,60.40
2019-02-28T03:22:17.075Z,60.40
2019-02-28T03:24:52.652Z,60.50
2019-02-28T03:27:34.804Z,60.80
2019-02-28T03:30:26.443Z,60.70
2019-02-28T03:32:56.590Z,60.80
2019-02-28T03:35:26.130Z,60.90
2019-02-28T03:38:10.552Z,61.00
2019-02-28T03:40:46.701Z,61.20
2019-02-28T03:43:29.006Z,61.30
2019-02-28T03:46:06.294Z,61.50
2019-02-28T03:48:43.199Z,61.70
2019-02-28T03:51:28.356Z,62.00
2019-02-28T03:54:03.337Z,62.40
2019-02-28T03:56:51.344Z,62.80
2019-02-28T03:59:24.082Z,63.00
2019-02-28T04:02:06.585Z,63.20
2019-02-28T04:04:48.736Z,63.00
2019-02-28T04:07:20.273Z,63.20
2019-02-28T04:09:56.075Z,63.50
2019-02-28T04:12:45.217Z,63.50
2019-02-28T04:15:19.001Z,63.70
2019-02-28T04:17:54.624Z,63.90
2019-02-28T04:20:36.067Z,64.00
2019-02-28T04:23:09.083Z,64.50
2019-02-28T04:25:51.060Z,64.70
2019-02-28T04:28:26.918Z,64.80
2019-02-28T04:31:03.403Z,65.00
2019-02-28T04:33:46.237Z,65.30
2019-02-28T04:36:28.954Z,65.60
2019-02-28T04:39:12.588Z,65.90
2019-02-28T04:41:48.152Z,66.10
2019-02-28T04:44:30.826Z,66.30
2019-02-28T04:47:13.112Z,66.50
2019-02-28T04:49:49.432Z,66.70
2019-02-28T04:52:32.068Z,67.00
2019-02-28T04:55:14.735Z,67.10
2019-02-28T04:57:51.673Z,67.30
2019-02-28T05:00:41.355Z,67.40
2019-02-28T05:03:16.913Z,67.50
2019-02-28T05:06:00.185Z,67.70
2019-02-28T05:08:38.563Z,67.80
2019-02-28T05:11:20.931Z,67.70
2019-02-28T05:14:03.528Z,67.60
2019-02-28T05:16:47.495Z,67.60
2019-02-28T05:19:37.717Z,67.60
2019-02-28T05:22:07.161Z,67.50
2019-02-28T05:24:43.825Z,67.30
2019-02-28T05:27:19.586Z,67.30
2019-02-28T05:30:01.763Z,67.30
2019-02-28T05:32:37.709Z,67.50
2019-02-28T05:35:13.431Z,67.80
2019-02-28T05:37:56.450Z,67.60
2019-02-28T05:40:32.135Z,67.70
2019-02-28T05:43:14.349Z,67.80
2019-02-28T05:45:57.101Z,68.00
2019-02-28T05:48:39.486Z,68.00
2019-02-28T05:51:15.759Z,68.10
2019-02-28T05:53:51.838Z,68.10
2019-02-28T05:56:34.174Z,68.30
2019-02-28T05:59:16.160Z,68.40
2019-02-28T06:01:51.686Z,68.50
2019-02-28T06:04:37.184Z,68.50
2019-02-28T06:07:18.008Z,68.60
2019-02-28T06:10:01.300Z,68.80
2019-02-28T06:12:45.036Z,69.00
2019-02-28T06:15:21.337Z,69.30
2019-02-28T06:17:54.599Z,69.70
2019-02-28T06:20:42.278Z,70.00
2019-02-28T06:23:18.185Z,70.00
2019-02-28T06:26:00.896Z,70.20
2019-02-28T06:28:36.459Z,70.30
2019-02-28T06:31:22.150Z,70.40
2019-02-28T06:33:58.154Z,70.50
2019-02-28T06:36:39.745Z,70.40
2019-02-28T06:39:17.545Z,70.40
2019-02-28T06:41:59.229Z,70.20
2019-02-28T06:44:35.198Z,70.00
2019-02-28T06:47:18.132Z,70.00
2019-02-28T06:49:53.689Z,70.10
2019-02-28T06:52:36.159Z,70.60
2019-02-28T06:55:32.905Z,71.20
2019-02-28T06:58:14.480Z,72.40
2019-02-28T07:01:03.643Z,73.20
2019-02-28T07:03:39.857Z,74.00
2019-02-28T07:06:22.970Z,73.90
2019-02-28T07:09:02.530Z,74.20
2019-02-28T07:11:38.514Z,74.50
2019-02-28T07:14:12.871Z,74.80
2019-02-28T07:16:52.829Z,74.50
2019-02-28T07:19:28.241Z,74.90
2019-02-28T07:22:10.405Z,75.00
2019-02-28T07:24:52.994Z,75.20
2019-02-28T07:27:29.837Z,75.90
2019-02-28T07:30:10.951Z,76.40
2019-02-28T07:32:54.113Z,76.60
2019-02-28T07:35:34.180Z,76.70
2019-02-28T07:38:14.128Z,76.90
2019-02-28T07:40:56.335Z,77.30
2019-02-28T07:43:32.674Z,76.90
2019-02-28T07:46:09.027Z,77.10
2019-02-28T07:48:51.441Z,77.00
2019-02-28T07:51:33.305Z,77.00
2019-02-28T07:54:16.657Z,77.00
2019-02-28T07:57:06.046Z,77.20
2019-02-28T07:59:48.622Z,77.30
2019-02-28T08:02:25.106Z,77.40
2019-02-28T08:04:55.763Z,77.40
2019-02-28T08:07:31.928Z,77.80
2019-02-28T08:10:07.681Z,77.70
2019-02-28T08:12:44.110Z,77.60
2019-02-28T08:15:21.138Z,78.00
2019-02-28T08:17:55.728Z,78.10
2019-02-28T08:20:25.327Z,77.70
2019-02-28T08:23:08.394Z,77.90
2019-02-28T08:25:44.791Z,78.10
2019-02-28T08:28:20.928Z,77.80
2019-02-28T08:30:54.973Z,77.20
2019-02-28T08:33:21.556Z,77.50
2019-02-28T08:35:57.329Z,77.70
2019-02-28T08:38:26.817Z,77.50
2019-02-28T08:41:03.059Z,77.70
2019-02-28T08:43:32.508Z,77.80
2019-02-28T08:46:10.814Z,77.30
2019-02-28T08:48:39.448Z,76.90
2019-02-28T08:51:08.955Z,76.40
2019-02-28T08:53:50.821Z,76.70
2019-02-28T08:56:23.239Z,76.50
2019-02-28T08:59:11.765Z,76.30
2019-02-28T09:01:44.279Z,76.20
2019-02-28T09:04:27.225Z,75.90
2019-02-28T09:07:03.754Z,75.60
2019-02-28T09:09:46.299Z,75.60
2019-02-28T09:12:22.825Z,75.60
2019-02-28T09:14:58.488Z,75.70
2019-02-28T09:17:28.079Z,75.60
2019-02-28T09:20:12.994Z,75.50
2019-02-28T09:23:01.789Z,75.60
2019-02-28T09:25:39.909Z,75.40
2019-02-28T09:28:16.276Z,74.70
2019-02-28T09:31:04.891Z,74.70
2019-02-28T09:33:48.467Z,74.10
2019-02-28T09:36:31.154Z,74.20
2019-02-28T09:39:16.337Z,74.40
2019-02-28T09:41:46.600Z,74.40
2019-02-28T09:44:31.420Z,73.80
2019-02-28T09:47:00.040Z,74.00
2019-02-28T09:49:36.088Z,74.10
2019-02-28T09:52:12.534Z,72.60
2019-02-28T09:54:56.308Z,72.90
2019-02-28T09:57:26.693Z,72.60
2019-02-28T10:00:03.171Z,72.00
2019-02-28T10:02:45.165Z,72.10
2019-02-28T10:05:29.121Z,71.90
2019-02-28T10:08:12.587Z,72.30
2019-02-28T10:10:48.696Z,72.50
2019-02-28T10:13:31.261Z,72.60
2019-02-28T10:16:07.710Z,71.70
2019-02-28T10:18:50.345Z,71.80
2019-02-28T10:21:26.735Z,72.00
2019-02-28T10:24:09.424Z,71.70
2019-02-28T10:26:48.200Z,71.40
2019-02-28T10:29:23.059Z,71.00
2019-02-28T10:31:59.287Z,71.80
2019-02-28T10:34:35.532Z,71.80
2019-02-28T10:37:11.845Z,71.10
2019-02-28T10:39:53.843Z,70.90
2019-02-28T10:42:37.074Z,71.10
2019-02-28T10:45:29.218Z,69.90
2019-02-28T10:48:11.150Z,69.20
2019-02-28T10:50:47.775Z,69.10
2019-02-28T10:53:31.002Z,69.00
2019-02-28T10:56:07.525Z,69.80
2019-02-28T10:58:44.089Z,69.00
2019-02-28T11:01:20.674Z,69.30
2019-02-28T11:04:04.533Z,69.50
2019-02-28T11:06:41.218Z,70.40
2019-02-28T11:09:27.482Z,70.50
2019-02-28T11:12:04.467Z,69.90
2019-02-28T11:14:41.232Z,69.90
2019-02-28T11:17:24.044Z,69.60
2019-02-28T11:19:53.502Z,69.30
2019-02-28T11:22:36.542Z,68.30
2019-02-28T11:25:15.474Z,68.90
2019-02-28T11:27:53.762Z,69.20
2019-02-28T11:30:37.568Z,67.30
2019-02-28T11:33:22.859Z,67.00
2019-02-28T11:35:59.446Z,67.90
2019-02-28T11:38:35.786Z,67.10
2019-02-28T11:41:15.506Z,67.20
2019-02-28T11:43:56.142Z,66.50
2019-02-28T11:46:25.714Z,66.70
2019-02-28T11:49:02.085Z,66.70
2019-02-28T11:51:37.854Z,66.10
2019-02-28T11:54:13.560Z,66.40
2019-02-28T11:56:50.020Z,66.60
2019-02-28T11:59:32.634Z,65.70
2019-02-28T12:02:09.167Z,65.40
2019-02-28T12:04:44.864Z,65.50
2019-02-28T12:07:14.385Z,66.00
2019-02-28T12:09:57.045Z,65.70
2019-02-28T12:12:33.430Z,65.20
2019-02-28T12:15:28.989Z,65.40
2019-02-28T12:18:12.087Z,64.40
2019-02-28T12:20:54.751Z,64.70
2019-02-28T12:23:31.131Z,64.10
2019-02-28T12:26:06.826Z,63.30
2019-02-28T12:28:42.963Z,62.60
2019-02-28T12:31:13.115Z,62.60
2019-02-28T12:33:49.595Z,62.80
2019-02-28T12:36:27.649Z,62.30
2019-02-28T12:39:12.123Z,61.10
2019-02-28T12:41:47.977Z,59.10
2019-02-28T12:44:30.466Z,59.70
2019-02-28T12:46:59.909Z,59.80
2019-02-28T12:49:36.335Z,59.80
2019-02-28T12:52:14.589Z,60.00
2019-02-28T12:54:50.544Z,60.90
2019-02-28T12:57:27.051Z,59.30
2019-02-28T13:00:02.963Z,59.80
2019-02-28T13:02:39.806Z,58.90
2019-02-28T13:05:20.434Z,60.10
2019-02-28T13:07:49.948Z,59.90
2019-02-28T13:10:39.601Z,60.40
2019-02-28T13:13:15.220Z,59.70
2019-02-28T13:15:58.265Z,59.80
2019-02-28T13:18:27.792Z,59.80
2019-02-28T13:21:06.070Z,60.60
2019-02-28T13:23:35.408Z,59.00
2019-02-28T13:26:18.028Z,59.30
2019-02-28T13:28:57.306Z,58.80
2019-02-28T13:31:39.352Z,58.30
2019-02-28T13:34:15.578Z,57.70
2019-02-28T13:37:01.907Z,58.30
2019-02-28T13:39:35.651Z,58.30
2019-02-28T13:42:11.672Z,58.50
2019-02-28T13:44:48.067Z,58.90
2019-02-28T13:47:24.261Z,58.90
2019-02-28T13:50:00.392Z,58.90
2019-02-28T13:52:29.878Z,59.00
2019-02-28T13:55:14.193Z,58.80
2019-02-28T13:57:50.580Z,58.10
2019-02-28T14:00:49.439Z,58.20
2019-02-28T14:03:25.944Z,56.90
2019-02-28T14:06:02.266Z,57.00
2019-02-28T14:08:38.867Z,56.50
2019-02-28T14:11:21.367Z,57.20
2019-02-28T14:13:50.879Z,57.30
2019-02-28T14:16:33.948Z,57.00
2019-02-28T14:19:16.794Z,57.30
2019-02-28T14:21:47.787Z,57.10
2019-02-28T14:24:17.343Z,57.20
2019-02-28T14:26:53.597Z,55.80
2019-02-28T14:29:23.127Z,55.70
2019-02-28T14:32:01.092Z,54.70
2019-02-28T14:34:37.329Z,54.30
2019-02-28T14:37:13.406Z,55.00
2019-02-28T14:39:55.228Z,54.60
2019-02-28T14:42:30.962Z,55.10
2019-02-28T14:45:07.265Z,55.00
2019-02-28T14:47:56.992Z,54.30
2019-02-28T14:50:28.747Z,54.90
2019-02-28T14:52:59.346Z,54.90
2019-02-28T14:55:37.285Z,55.20
2019-02-28T14:58:12.995Z,55.00
2019-02-28T15:00:49.614Z,53.50
2019-02-28T15:03:31.289Z,53.80
2019-02-28T15:06:07.350Z,54.10
2019-02-28T15:08:44.213Z,54.10
2019-02-28T15:11:26.457Z,54.10
2019-02-28T15:14:05.638Z,54.20
2019-02-28T15:16:46.903Z,54.60
2019-02-28T15:19:24.473Z,54.60
2019-02-28T15:22:06.412Z,54.40
2019-02-28T15:24:43.725Z,54.50
2019-02-28T15:27:26.060Z,54.80
2019-02-28T15:30:02.487Z,55.10
2019-02-28T15:32:45.691Z,55.20
2019-02-28T15:35:23.470Z,55.40
2019-02-28T15:38:09.093Z,55.40
2019-02-28T15:40:55.670Z,55.90
2019-02-28T15:43:25.893Z,56.20
2019-02-28T15:46:02.078Z,56.50
2019-02-28T15:48:38.649Z,56.40
2019-02-28T15:51:22.143Z,56.60
2019-02-28T15:54:05.584Z,56.90
2019-02-28T15:56:48.225Z,57.40
2019-02-28T15:59:23.949Z,58.00
2019-02-28T16:02:06.250Z,58.50
2019-02-28T16:04:43.872Z,58.80
2019-02-28T16:07:32.245Z,59.10
2019-02-28T16:10:05.047Z,59.30
2019-02-28T16:12:41.437Z,59.60
2019-02-28T16:15:21.972Z,59.90
2019-02-28T16:17:51.651Z,59.40
2019-02-28T16:20:41.433Z,59.20
2019-02-28T16:23:17.246Z,59.10
2019-02-28T16:25:59.603Z,59.00
2019-02-28T16:28:36.012Z,59.00
2019-02-28T16:31:11.804Z,59.00
2019-02-28T16:33:56.577Z,59.30
2019-02-28T16:36:33.019Z,59.10
2019-02-28T16:39:16.910Z,59.20
2019-02-28T16:41:51.949Z,59.60
2019-02-28T16:44:35.281Z,60.00
2019-02-28T16:47:05.135Z,60.40
2019-02-28T16:49:48.024Z,60.80
2019-02-28T16:52:23.883Z,61.40
2019-02-28T16:55:00.508Z,61.90
2019-02-28T16:57:47.027Z,62.50
2019-02-28T17:00:23.138Z,63.20
2019-02-28T17:03:04.006Z,64.00
2019-02-28T17:05:45.324Z,64.20
2019-02-28T17:08:21.075Z,65.00
2019-02-28T17:11:03.765Z,65.20
2019-02-28T17:13:41.239Z,65.70
2019-02-28T17:16:33.748Z,66.00
2019-02-28T17:19:03.278Z,66.70
2019-02-28T17:21:48.671Z,67.10
2019-02-28T17:24:17.512Z,67.40
2019-02-28T17:27:02.387Z,67.70
2019-02-28T17:29:43.532Z,68.10
2019-02-28T17:32:28.106Z,68.40
2019-02-28T17:35:05.276Z,68.70
2019-02-28T17:37:41.669Z,69.00
2019-02-28T17:40:18.099Z,69.10
2019-02-28T17:43:01.489Z,69.40
2019-02-28T17:45:37.171Z,69.50
2019-02-28T17:48:32.991Z,69.90
2019-02-28T17:51:22.575Z,70.20
2019-02-28T17:54:29.969Z,70.90
2019-02-28T17:57:31.102Z,71.40
2019-02-28T18:00:51.771Z,71.90
2019-02-28T18:03:58.297Z,72.40
2019-02-28T18:06:56.667Z,72.40
2019-02-28T18:09:48.225Z,72.50
2019-02-28T18:13:05.674Z,72.50
2019-02-28T18:16:07.719Z,72.60
2019-02-28T18:19:40.146Z,72.70
2019-02-28T18:22:57.603Z,73.00
2019-02-28T18:26:09.323Z,73.70
2019-02-28T18:29:02.017Z,74.00
2019-02-28T18:31:41.879Z,74.40
2019-02-28T18:34:20.633Z,74.80
2019-02-28T18:37:02.256Z,75.10
2019-02-28T18:39:44.618Z,75.00
2019-02-28T18:42:21.876Z,74.80
2019-02-28T18:44:58.322Z,75.10
2019-02-28T18:47:40.782Z,75.20
2019-02-28T18:50:24.054Z,75.10
2019-02-28T18:53:12.955Z,75.30
2019-02-28T18:55:49.194Z,75.40
2019-02-28T18:58:32.341Z,75.60
2019-02-28T19:01:22.398Z,75.70
2019-02-28T19:04:12.403Z,75.90
2019-02-28T19:07:01.628Z,76.10
2019-02-28T19:09:37.462Z,76.20
2019-02-28T19:12:27.335Z,76.20
2019-02-28T19:15:16.352Z,76.70
2019-02-28T19:17:59.878Z,77.20
2019-02-28T19:20:43.084Z,77.20
2019-02-28T19:23:25.192Z,77.60
2019-02-28T19:26:14.507Z,78.20
2019-02-28T19:28:57.574Z,78.80
2019-02-28T19:31:33.818Z,79.60
2019-02-28T19:34:23.508Z,80.80
2019-02-28T19:37:13.243Z,81.10
2019-02-28T19:39:56.342Z,81.70
2019-02-28T19:42:39.634Z,82.70
2019-02-28T19:45:39.353Z,83.60
2019-02-28T19:48:22.169Z,84.30
2019-02-28T19:50:58.270Z,84.90
2019-02-28T19:53:40.603Z,85.40
2019-02-28T19:56:17.559Z,85.70
2019-02-28T19:59:00.219Z,86.00
2019-02-28T20:01:42.648Z,86.10
2019-02-28T20:04:18.952Z,86.90
2019-02-28T20:07:01.437Z,87.10
2019-02-28T20:09:38.042Z,87.40
2019-02-28T20:12:21.377Z,88.30
2019-02-28T20:15:04.394Z,88.30
2019-02-28T20:17:47.659Z,88.40
2019-02-28T20:20:37.759Z,88.40
2019-02-28T20:23:14.643Z,88.80
2019-02-28T20:25:57.712Z,88.50
2019-02-28T20:28:40.613Z,89.40
2019-02-28T20:31:17.282Z,89.20
2019-02-28T20:33:53.832Z,89.10
2019-02-28T20:36:30.549Z,89.70
2019-02-28T20:39:13.071Z,89.60
2019-02-28T20:41:55.831Z,89.70
2019-02-28T20:44:38.253Z,90.00
2019-02-28T20:47:20.946Z,90.00
2019-02-28T20:49:57.407Z,89.70
2019-02-28T20:52:33.955Z,89.80
2019-02-28T20:55:10.394Z,89.70
2019-02-28T20:57:52.884Z,89.80
2019-02-28T21:00:42.433Z,90.00
2019-02-28T21:03:31.819Z,90.30
2019-02-28T21:06:14.466Z,90.30
2019-02-28T21:08:56.987Z,90.40
2019-02-28T21:11:45.839Z,90.40
2019-02-28T21:14:29.132Z,90.30
2019-02-28T21:17:11.868Z,90.30
2019-02-28T21:19:47.959Z,90.20
2019-02-28T21:22:31.156Z,90.30
2019-02-28T21:25:06.677Z,90.30
2019-02-28T21:27:48.733Z,90.40
2019-02-28T21:30:33.564Z,90.50
2019-02-28T21:33:16.041Z,90.50
2019-02-28T21:35:58.845Z,90.60
2019-02-28T21:38:48.347Z,90.50
2019-02-28T21:41:31.362Z,90.40
2019-02-28T21:44:08.260Z,90.40
2019-02-28T21:46:50.952Z,90.50
2019-02-28T21:49:33.659Z,90.50
2019-02-28T21:52:16.004Z,90.40
2019-02-28T21:54:52.117Z,90.60
2019-02-28T21:57:34.622Z,90.70
2019-02-28T22:00:27.314Z,90.60
2019-02-28T22:03:03.139Z,90.60
2019-02-28T22:05:39.652Z,90.70
2019-02-28T22:08:22.747Z,90.60
2019-02-28T22:11:05.478Z,90.80
2019-02-28T22:13:55.083Z,91.00
2019-02-28T22:16:43.991Z,91.00
2019-02-28T22:19:26.809Z,90.90
2019-02-28T22:22:09.070Z,90.90
2019-02-28T22:24:44.653Z,91.10
2019-02-28T22:27:34.195Z,91.00
2019-02-28T22:30:48.905Z,91.00
2019-02-28T22:33:33.465Z,91.10
2019-02-28T22:36:10.701Z,91.10
2019-02-28T22:39:00.282Z,91.20
2019-02-28T22:41:36.678Z,91.00
2019-02-28T22:44:18.966Z,91.20
2019-02-28T22:47:01.573Z,91.20
2019-02-28T22:49:50.182Z,91.10
2019-02-28T22:52:25.777Z,91.10
2019-02-28T22:55:14.696Z,91.10
2019-02-28T22:58:03.932Z,91.30
2019-02-28T23:01:07.776Z,91.30
2019-02-28T23:03:56.884Z,91.30
2019-02-28T23:06:45.973Z,91.40
2019-02-28T23:09:28.646Z,91.40
2019-02-28T23:12:11.419Z,91.40
2019-02-28T23:15:00.676Z,91.60
2019-02-28T23:17:49.529Z,91.40
2019-02-28T23:20:32.724Z,91.40
2019-02-28T23:23:15.125Z,91.50
2019-02-28T23:26:05.972Z,91.60
2019-02-28T23:28:49.570Z,91.50
2019-02-28T23:32:09.990Z,91.40
2019-02-28T23:34:59.073Z,91.70
2019-02-28T23:37:41.550Z,91.30
2019-02-28T23:40:24.669Z,91.50
2019-02-28T23:43:14.208Z,91.50
2019-02-28T23:46:03.861Z,91.50
2019-02-28T23:48:46.472Z,91.50
2019-02-28T23:51:35.635Z,91.60
2019-02-28T23:54:17.876Z,91.50
2019-02-28T23:56:53.496Z,91.50
2019-02-28T23:59:36.036Z,91.40
